Historique des mesures à Cassis (13260), France
Quotidien Résumé Juin 23, 2017 Unités:  Métrique    US   Métrique/US
« Précédent (Jour)
Suivant (Jour) »
Quotidien Hebdomadaire Mensuel Annuel Période au choix
  Maximum: Minimum: Moyenne:
Température: TemperatureC °C 22.4 °C 26.3 °C
Point de rosée: DewpointC °C 18.7 °C 20.4 °C
Humidité: Humidity % 58 % 67 %
Vitesse du vent: 0 km/h 0 km/h 4.2 km/h
Rafales: 0 km/h - -
Vent:- - SW
Pression: PressurehPa hPa 1012.4 hPa -
Précipitations: 0.0 mm    
Historical Graphs
 
 
Mesures pour : Juin 23, 2017
Heure Temperature Point de rosée Pression Vent Vitesse du vent Rafales Humidité Pluie (par heure) Conditions
TemperatureC °C DewpointC °C PressurehPa hPa Calm     Humidity % HourlyPrecipMM mm SoftwareType W/m2
00:11 24.3 °C 19.8 °C 1014.4 hPa Calm     76 % 0.0 mm open2300-1.11 W/m2
01:10 24.1 °C 19.8 °C 1014.4 hPa Calm     77 % 0.0 mm open2300-1.11 W/m2
02:11 23.4 °C 19.4 °C 1014.1 hPa Calm     78 % 0.0 mm open2300-1.11 W/m2
03:10 23.2 °C 19.2 °C 1013.8 hPa Calm     78 % 0.0 mm open2300-1.11 W/m2
04:10 22.9 °C 18.7 °C 1013.4 hPa Calm     77 % 0.0 mm open2300-1.11 W/m2
05:10 22.9 °C 19.3 °C 1013.4 hPa Calm   2.9 km/h 80 % 0.0 mm open2300-1.11 W/m2
06:10 22.4 °C 18.8 °C 1013.4 hPa NNW 3.4 km/h 3.4 km/h 80 % 0.0 mm open2300-1.11 W/m2
07:10 23.4 °C 20.0 °C 1013.8 hPa Calm     81 % 0.0 mm open2300-1.11 W/m2
08:10 25.2 °C 21.1 °C 1014.1 hPa Calm     78 % 0.0 mm open2300-1.11 W/m2
09:10 26.3 °C 21.7 °C 1014.1 hPa Calm   2.3 km/h 76 % 0.0 mm open2300-1.11 W/m2
10:10 28.1 °C 23.0 °C 1014.1 hPa WSW 4.2 km/h 9.8 km/h 74 % 0.0 mm open2300-1.11 W/m2
11:10 30.1 °C 23.6 °C 1014.1 hPa SSE 10.3 km/h 10.3 km/h 68 % 0.0 mm open2300-1.11 W/m2
12:10 31.4 °C 23.3 °C 1013.8 hPa SE 2.3 km/h 12.2 km/h 62 % 0.0 mm open2300-1.11 W/m2
13:10 31.9 °C 23.7 °C 1013.4 hPa SSE 9.8 km/h 9.8 km/h 62 % 0.0 mm open2300-1.11 W/m2
14:10 32.4 °C 23.9 °C 1013.4 hPa Calm   4.7 km/h 61 % 0.0 mm open2300-1.11 W/m2
15:10 32.5 °C 23.8 °C 1013.1 hPa South 8.9 km/h 9.3 km/h 60 % 0.0 mm open2300-1.11 W/m2
16:10 32.8 °C 23.7 °C 1013.1 hPa SE 4.7 km/h 14 km/h 59 % 0.0 mm open2300-1.11 W/m2
17:10 31.3 °C 22.9 °C 1012.4 hPa WNW 6.9 km/h 8 km/h 61 % 0.0 mm open2300-1.11 W/m2
18:10 31.4 °C 22.1 °C 1012.4 hPa WSW 5.1 km/h 14.5 km/h 58 % 0.0 mm open2300-1.11 W/m2
19:10 29.2 °C 20.9 °C 1012.8 hPa NNE 3.4 km/h 28.5 km/h 61 % 0.0 mm open2300-1.11 W/m2
20:11 28.7 °C 20.4 °C 1013.1 hPa NW 18.7 km/h 18.7 km/h 61 % 0.0 mm open2300-1.11 W/m2
21:10 27.2 °C 20.1 °C 1013.4 hPa West 2.3 km/h 9.8 km/h 65 % 0.0 mm open2300-1.11 W/m2
22:10 26.8 °C 19.9 °C 1013.4 hPa Calm   2.3 km/h 66 % 0.0 mm open2300-1.11 W/m2
23:10 26.3 °C 19.7 °C 1013.4 hPa NW 23.8 km/h 23.8 km/h 67 % 0.0 mm open2300-1.11 W/m2
Observations météo à CASSIS
WU-History script by Weather Underground - 1 mb